Terminal Aerodrome Forecast
Issued by NWS

Home | Current Version | Previous Version | Text Only | Print | Product List | Glossary On
Versions: 1 2 3 4 5 6 7 8 9 10 11 12 13 14 15 16 17 18 19 20 21 22
000
FTUS43 KJKL 021216 AAA
TAFSJS
TAF AMD
KSJS 021216Z 0212/0312 00000KT 3SM BR OVC004
     FM021800 35008KT P6SM VCSH BKN020
     FM022200 VRB06KT P6SM BKN050
     FM030600 00000KT 1SM BR OVC002=

USA.gov is the U.S. government's official web portal to all federal, state and local government web resources and services.